Time;durP1;ratioP1;P1;durP2;ratioP2;P2;SDS_P1;SDS_P2;PMS_P1;PMS_P2;Temp;Humidity;BMP_temperature;BMP_pressure;BME280_temperature;BME280_humidity;BME280_pressure;Samples;Min_cycle;Max_cycle;Signal;HPM_P1;HPM_P2
2022/02/03 00:02:35;;;;;;;6.32;4.25;;;8.90;91.30;;;;;;6184193;23;20009;-71
2022/02/03 00:05:11;;;;;;;6.03;3.50;;;8.90;91.30;;;;;;6183184;23;20421;-71
2022/02/03 00:24:16;;;;;;;6.47;3.75;;;8.80;91.40;;;;;;6184205;23;20024;-70
2022/02/03 00:27:02;;;;;;;7.32;3.75;;;8.80;91.40;;;;;;6183801;23;20048;-71
2022/02/03 00:29:50;;;;;;;6.53;3.78;;;8.80;91.50;;;;;;6184832;23;20321;-71
2022/02/03 00:35:26;;;;;;;6.55;3.38;;;8.80;91.50;;;;;;6182858;23;20353;-71
2022/02/03 00:38:14;;;;;;;4.70;2.88;;;8.80;91.50;;;;;;6183691;23;20039;-70
2022/02/03 00:48:54;;;;;;;5.47;3.10;;;8.80;91.60;;;;;;6180075;23;20468;-72
2022/02/03 00:51:21;;;;;;;6.80;3.33;;;8.90;91.60;;;;;;6155625;23;20009;-71
2022/02/03 00:53:48;;;;;;;6.05;3.40;;;8.80;91.60;;;;;;6182204;23;20453;-70
2022/02/03 00:56:17;;;;;;;6.30;3.20;;;8.80;91.60;;;;;;6182149;23;20100;-71
2022/02/03 00:59:05;;;;;;;6.75;3.92;;;8.80;91.60;;;;;;6182231;23;20345;-71
2022/02/03 01:01:36;;;;;;;5.80;3.20;;;8.80;91.70;;;;;;6182338;23;20009;-71
2022/02/03 01:04:08;;;;;;;5.25;3.33;;;8.80;91.60;;;;;;6154898;23;20013;-71
2022/02/03 01:06:41;;;;;;;5.68;3.45;;;8.90;91.70;;;;;;6182646;23;20019;-71
2022/02/03 01:09:08;;;;;;;6.82;3.90;;;8.90;91.70;;;;;;6180308;23;20021;-72
2022/02/03 01:11:40;;;;;;;6.15;3.47;;;8.80;91.60;;;;;;6157639;23;20013;-71
2022/02/03 01:14:11;;;;;;;7.00;4.03;;;8.90;91.70;;;;;;6182434;23;20013;-71
2022/02/03 01:16:56;;;;;;;6.60;4.00;;;8.90;91.70;;;;;;6183823;23;20005;-71
2022/02/03 01:19:44;;;;;;;6.47;4.03;;;8.90;91.70;;;;;;6182531;23;20344;-71
2022/02/03 01:43:38;;;;;;;8.55;5.25;;;8.90;91.80;;;;;;6121541;23;20025;-72
2022/02/03 01:46:15;;;;;;;7.30;4.50;;;8.90;91.80;;;;;;6077184;23;20017;-71
2022/02/03 01:49:09;;;;;;;8.68;5.43;;;8.90;91.80;;;;;;6054072;23;20390;-71
2022/02/03 01:51:48;;;;;;;8.90;5.57;;;9.00;91.80;;;;;;6081893;23;20025;-72
2022/02/03 01:54:28;;;;;;;9.55;5.97;;;8.90;91.80;;;;;;6055425;23;20077;-72
2022/02/03 01:57:17;;;;;;;9.65;6.25;;;8.90;91.80;;;;;;6073424;23;20025;-71
2022/02/03 01:59:50;;;;;;;9.02;5.82;;;8.90;91.80;;;;;;6121411;23;20018;-72
2022/02/03 02:02:21;;;;;;;9.32;5.78;;;8.90;91.80;;;;;;6122133;23;20442;-71
2022/02/03 02:05:09;;;;;;;9.30;5.57;;;8.90;91.80;;;;;;6122300;23;20037;-71
2022/02/03 02:08:04;;;;;;;7.68;4.68;;;8.90;91.80;;;;;;6122029;23;20104;-71
2022/02/03 02:14:06;;;;;;;7.82;4.90;;;8.90;91.80;;;;;;6118559;23;20013;-72
2022/02/03 02:19:47;;;;;;;9.27;5.57;;;8.90;91.80;;;;;;6161517;23;20096;-72
2022/02/03 02:39:21;;;;;;;;;;;8.90;91.80;;;;;;6182687;23;20021;-72
2022/02/03 02:44:58;;;;;;;9.95;5.80;;;8.90;92.10;;;;;;6180417;23;20019;-72
2022/02/03 02:47:38;;;;;;;11.70;6.25;;;8.90;91.80;;;;;;6183229;23;20008;-71
2022/02/03 02:50:11;;;;;;;10.00;5.95;;;8.90;91.80;;;;;;6183544;23;20016;-72
2022/02/03 02:52:49;;;;;;;10.98;5.93;;;9.00;91.80;;;;;;6183495;23;20890;-72
2022/02/03 02:55:34;;;;;;;11.13;6.88;;;8.90;91.80;;;;;;6182145;23;20012;-72
2022/02/03 02:58:43;;;;;;;11.27;6.65;;;8.90;91.80;;;;;;6183390;23;20013;-71
2022/02/03 03:04:11;;;;;;;10.05;6.18;;;8.90;91.80;;;;;;6181947;23;20021;-72
2022/02/03 03:31:11;;;;;;;9.30;5.75;;;8.90;91.90;;;;;;6182867;23;20039;-72
2022/02/03 03:33:38;;;;;;;9.15;5.80;;;8.80;91.90;;;;;;6182704;23;20021;-72
2022/02/03 03:36:11;;;;;;;7.78;4.82;;;8.80;91.90;;;;;;6179027;23;20014;-72
2022/02/03 03:38:40;;;;;;;8.07;4.32;;;8.80;91.90;;;;;;6182127;23;20012;-72
2022/02/03 03:41:06;;;;;;;7.47;4.53;;;8.80;91.90;;;;;;6183107;23;20455;-72
2022/02/03 03:43:40;;;;;;;8.85;4.63;;;8.80;91.90;;;;;;6182955;23;20032;-72
2022/02/03 03:46:09;;;;;;;6.72;4.03;;;8.80;91.90;;;;;;6183541;23;20009;-72
2022/02/03 03:48:43;;;;;;;7.53;4.10;;;8.90;92.00;;;;;;6182840;23;20009;-72
2022/02/03 03:51:12;;;;;;;6.72;3.92;;;8.80;92.00;;;;;;6181265;23;20411;-72
2022/02/03 03:53:48;;;;;;;7.90;4.25;;;8.80;92.00;;;;;;6181440;23;20009;-72
2022/02/03 03:56:28;;;;;;;7.50;4.43;;;8.80;92.20;;;;;;6181470;23;20445;-72
2022/02/03 03:59:20;;;;;;;7.53;4.40;;;8.70;91.90;;;;;;6182860;23;20017;-72
2022/02/03 04:40:19;;;;;;;6.88;4.32;;;8.70;91.80;;;;;;6183849;23;20310;-73
2022/02/03 04:50:55;;;;;;;8.85;5.32;;;8.60;91.80;;;;;;6182993;23;20012;-72
2022/02/03 04:55:30;;;;;;;8.65;5.35;;;8.70;91.80;;;;;;6183827;23;20120;-73
2022/02/03 05:01:41;;;;;;;8.18;5.47;;;8.60;91.70;;;;;;6183955;23;20441;-72
2022/02/03 05:04:35;;;;;;;9.48;5.75;;;8.60;91.70;;;;;;6183826;23;20068;-72
2022/02/03 05:07:46;;;;;;;8.25;5.13;;;8.60;91.70;;;;;;6184896;23;19998;-72
2022/02/03 05:10:56;;;;;;;9.87;5.37;;;8.60;91.70;;;;;;6184578;23;20087;-72
2022/02/03 05:14:07;;;;;;;7.85;4.88;;;8.50;91.70;;;;;;6183767;23;20870;-72
2022/02/03 05:20:17;;;;;;;8.07;4.18;;;8.50;91.70;;;;;;6182781;23;20009;-73
2022/02/03 05:26:53;;;;;;;7.38;3.72;;;8.50;91.70;;;;;;6183746;23;20009;-72
2022/02/03 05:45:03;;;;;;;6.05;3.65;;;8.40;91.70;;;;;;6183917;23;20371;-72
2022/02/03 05:50:35;;;;;;;6.20;3.60;;;8.40;91.70;;;;;;6182698;23;20017;-72
2022/02/03 06:07:05;;;;;;;5.13;3.00;;;8.40;91.60;;;;;;6180735;23;20064;-72
2022/02/03 06:09:38;;;;;;;5.45;3.05;;;8.40;91.60;;;;;;6183634;23;20080;-71
2022/02/03 06:12:31;;;;;;;6.13;3.15;;;8.40;91.60;;;;;;6157519;23;20025;-72
2022/02/03 06:14:58;;;;;;;6.20;3.63;;;8.40;91.70;;;;;;6183783;23;20091;-72
2022/02/03 06:17:37;;;;;;;6.90;3.50;;;8.40;91.70;;;;;;6184397;23;20021;-72
2022/02/03 06:22:55;;;;;;;5.45;3.30;;;8.30;91.60;;;;;;6182453;23;20063;-72
2022/02/03 06:27:50;;;;;;;5.90;3.15;;;8.30;91.60;;;;;;6183956;23;20009;-73
2022/02/03 06:30:20;;;;;;;5.00;2.70;;;8.30;91.60;;;;;;6183813;23;20001;-72
2022/02/03 06:32:46;;;;;;;5.18;2.78;;;8.30;91.60;;;;;;6183380;23;20337;-72
2022/02/03 06:35:14;;;;;;;4.25;2.65;;;8.30;91.60;;;;;;6181985;23;20082;-72
2022/02/03 06:37:40;;;;;;;5.38;2.95;;;8.30;91.60;;;;;;6183921;23;20437;-72
2022/02/03 06:40:09;;;;;;;3.70;2.33;;;8.20;91.60;;;;;;6183637;23;20083;-72
2022/02/03 06:42:36;;;;;;;4.18;2.10;;;8.20;91.50;;;;;;6183262;23;20012;-73
2022/02/03 06:45:12;;;;;;;4.20;2.40;;;8.20;91.50;;;;;;6183259;23;20032;-73
2022/02/03 06:50:27;;;;;;;4.30;2.05;;;8.30;91.50;;;;;;6182312;23;20036;-73
2022/02/03 06:53:00;;;;;;;2.88;1.77;;;8.20;91.50;;;;;;6183734;23;20076;-72
2022/02/03 06:55:40;;;;;;;2.60;1.60;;;8.20;91.50;;;;;;6181854;23;20437;-73
2022/02/03 06:58:19;;;;;;;2.72;1.60;;;8.20;91.50;;;;;;6183751;23;20020;-72
2022/02/03 07:00:58;;;;;;;2.58;1.80;;;8.20;91.50;;;;;;6157106;23;20426;-72
2022/02/03 07:03:27;;;;;;;3.10;1.75;;;8.20;91.50;;;;;;6184038;23;20012;-72
2022/02/03 07:05:53;;;;;;;2.88;1.60;;;8.20;91.40;;;;;;6183591;23;20424;-72
2022/02/03 07:08:21;;;;;;;2.85;1.38;;;8.20;91.40;;;;;;6183521;23;20001;-72
2022/02/03 07:10:47;;;;;;;2.45;1.40;;;8.20;91.40;;;;;;6183651;23;20317;-73
2022/02/03 07:13:15;;;;;;;3.15;1.38;;;8.10;91.40;;;;;;6154982;23;20010;-73
2022/02/03 07:15:41;;;;;;;2.85;1.45;;;8.20;91.40;;;;;;6182975;23;20456;-72
2022/02/03 07:18:07;;;;;;;2.78;1.40;;;8.10;91.40;;;;;;6183132;23;20024;-71
2022/02/03 07:20:34;;;;;;;2.65;1.40;;;8.20;91.40;;;;;;6156489;23;20005;-72
2022/02/03 07:23:01;;;;;;;2.83;1.23;;;8.10;91.40;;;;;;6157010;23;20459;-72
2022/02/03 07:25:27;;;;;;;2.15;1.10;;;8.20;91.30;;;;;;6178647;23;20010;-72
2022/02/03 07:27:52;;;;;;;2.00;1.08;;;8.20;91.30;;;;;;6182773;23;20060;-72
2022/02/03 07:30:19;;;;;;;2.10;1.30;;;8.20;91.30;;;;;;6181877;23;20019;-72
2022/02/03 07:32:44;;;;;;;2.33;1.17;;;8.20;91.30;;;;;;6182978;23;20009;-72
2022/02/03 07:35:10;;;;;;;3.92;1.70;;;8.10;91.30;;;;;;6181378;23;20020;-72
2022/02/03 07:37:46;;;;;;;2.72;1.55;;;8.20;91.30;;;;;;6183268;23;20095;-72
2022/02/03 07:40:12;;;;;;;1.27;1.00;;;8.20;91.30;;;;;;6182925;23;20001;-72
2022/02/03 07:42:39;;;;;;;2.30;1.30;;;8.30;91.30;;;;;;6180250;23;20008;-72
2022/02/03 07:45:05;;;;;;;2.75;1.20;;;8.20;91.30;;;;;;6183486;23;20001;-73
2022/02/03 07:47:31;;;;;;;4.80;1.60;;;8.10;91.20;;;;;;6183101;23;20080;-72
2022/02/03 07:49:57;;;;;;;2.92;1.52;;;8.20;91.20;;;;;;6183705;23;20032;-73
2022/02/03 07:52:22;;;;;;;5.38;2.40;;;8.20;91.20;;;;;;6181343;23;20005;-71
2022/02/03 07:54:48;;;;;;;4.50;2.33;;;8.10;91.20;;;;;;6183711;23;20001;-73
2022/02/03 07:57:14;;;;;;;5.20;2.45;;;8.10;91.20;;;;;;6184279;23;20436;-72
2022/02/03 07:59:40;;;;;;;5.30;2.38;;;8.10;91.10;;;;;;6184831;23;20009;-72
2022/02/03 08:02:07;;;;;;;4.90;2.20;;;8.20;91.10;;;;;;6157745;23;20001;-71
2022/02/03 08:04:38;;;;;;;4.45;2.28;;;8.20;91.10;;;;;;6184960;23;19997;-71
2022/02/03 08:07:04;;;;;;;3.80;1.92;;;8.20;91.10;;;;;;6185006;23;20035;-72
2022/02/03 08:09:43;;;;;;;5.72;3.08;;;8.20;91.10;;;;;;6182678;23;20001;-71
2022/02/03 08:12:11;;;;;;;6.38;2.90;;;8.20;91.10;;;;;;6184806;23;20417;-71
2022/02/03 08:14:43;;;;;;;4.82;2.90;;;8.10;91.00;;;;;;6184726;23;20005;-71
2022/02/03 08:17:11;;;;;;;5.13;2.60;;;8.20;91.00;;;;;;6183025;23;20043;-71
2022/02/03 08:19:57;;;;;;;5.72;2.78;;;8.20;90.90;;;;;;6182611;23;20005;-71
2022/02/03 08:22:27;;;;;;;6.60;3.17;;;8.20;90.90;;;;;;6182834;23;20341;-71
2022/02/03 08:25:06;;;;;;;6.13;2.70;;;8.20;90.90;;;;;;6184749;23;20009;-72
2022/02/03 08:28:01;;;;;;;4.65;2.58;;;8.20;90.90;;;;;;6182003;23;20067;-71
2022/02/03 08:30:37;;;;;;;5.28;2.50;;;8.20;90.80;;;;;;6183833;23;20035;-72
2022/02/03 08:33:04;;;;;;;4.28;2.22;;;8.20;90.80;;;;;;6184333;23;20008;-71
2022/02/03 08:35:37;;;;;;;4.70;2.55;;;8.20;90.80;;;;;;6183894;23;20085;-71
2022/02/03 08:38:15;;;;;;;5.88;2.72;;;8.20;90.80;;;;;;6182451;23;20016;-71
2022/02/03 08:43:24;;;;;;;;;;;8.30;90.80;;;;;;6184609;23;20012;-72
2022/02/03 08:45:49;;;;;;;5.03;2.10;;;8.20;90.80;;;;;;6179519;23;19952;-71
2022/02/03 08:48:16;;;;;;;5.30;2.63;;;8.30;90.80;;;;;;6184121;23;20338;-72
2022/02/03 08:50:43;;;;;;;4.25;2.28;;;8.20;90.80;;;;;;6184148;23;20009;-72
2022/02/03 08:53:18;;;;;;;4.22;2.42;;;8.20;90.80;;;;;;6183784;23;20009;-71
2022/02/03 08:55:55;;;;;;;5.90;3.40;;;8.20;90.70;;;;;;6184184;23;20009;-72
2022/02/03 08:58:42;;;;;;;6.07;3.10;;;8.20;90.70;;;;;;6182487;23;20159;-71
2022/02/03 09:36:27;;;;;;;7.35;3.72;;;8.20;90.40;;;;;;6183614;23;20019;-72
2022/02/03 09:41:50;;;;;;;7.15;3.70;;;8.20;90.40;;;;;;6161374;23;20449;-73
2022/02/03 10:00:41;;;;;;;5.88;3.20;;;8.20;90.30;;;;;;6183524;23;20326;-72
2022/02/03 10:03:20;;;;;;;5.13;3.17;;;8.30;90.30;;;;;;6183371;23;20016;-72
2022/02/03 10:06:04;;;;;;;5.32;3.28;;;8.20;90.30;;;;;;6181229;23;20035;-73
2022/02/03 10:08:30;;;;;;;7.20;3.15;;;8.30;90.30;;;;;;6182548;23;20306;-72
2022/02/03 10:11:20;;;;;;;5.85;3.00;;;8.30;90.20;;;;;;6183629;23;20079;-73
2022/02/03 10:13:51;;;;;;;5.88;3.10;;;8.30;90.20;;;;;;6183401;23;20341;-72
2022/02/03 10:16:20;;;;;;;6.90;3.15;;;8.20;90.20;;;;;;6183548;23;20031;-71
2022/02/03 10:18:46;;;;;;;5.25;3.10;;;8.20;90.30;;;;;;6183534;23;20333;-71
2022/02/03 10:21:15;;;;;;;4.70;2.80;;;8.20;90.30;;;;;;6183229;23;20005;-72
2022/02/03 10:23:58;;;;;;;5.47;2.90;;;8.10;90.30;;;;;;6183607;23;20005;-72
2022/02/03 10:26:45;;;;;;;6.60;2.40;;;8.10;90.30;;;;;;6183388;23;20007;-72
2022/02/03 10:29:14;;;;;;;5.25;2.50;;;8.10;90.40;;;;;;6182326;23;20016;-71
2022/02/03 10:31:42;;;;;;;4.95;2.42;;;8.10;90.40;;;;;;6182389;23;20001;-72
2022/02/03 10:34:11;;;;;;;7.07;2.50;;;8.10;90.40;;;;;;6182173;23;20456;-72
2022/02/03 10:37:05;;;;;;;6.75;2.63;;;8.20;90.40;;;;;;6184002;23;20458;-71
2022/02/03 10:42:40;;;;;;;5.45;2.60;;;8.20;90.40;;;;;;6180178;23;20021;-72
2022/02/03 10:48:29;;;;;;;5.38;2.72;;;8.20;90.30;;;;;;6182172;23;20445;-72
2022/02/03 10:59:32;;;;;;;4.53;2.50;;;8.20;90.40;;;;;;6183369;23;20017;-73
2022/02/03 11:07:02;;;;;;;5.05;2.42;;;8.30;90.30;;;;;;6181932;23;20088;-73
2022/02/03 11:09:42;;;;;;;6.50;2.60;;;8.30;90.30;;;;;;6181854;23;20310;-72
2022/02/03 11:12:15;;;;;;;4.13;2.13;;;8.50;90.20;;;;;;6183362;23;20444;-73
2022/02/03 11:14:43;;;;;;;5.05;2.53;;;8.50;90.10;;;;;;6183726;23;20067;-73
2022/02/03 11:17:10;;;;;;;4.45;2.33;;;8.50;90.10;;;;;;6183788;23;20016;-73
2022/02/03 11:19:37;;;;;;;5.38;2.63;;;8.50;90.00;;;;;;6183816;23;20444;-72
2022/02/03 11:22:08;;;;;;;3.70;2.20;;;8.50;90.00;;;;;;6181435;23;20005;-72
2022/02/03 11:24:41;;;;;;;5.13;2.50;;;8.60;90.00;;;;;;6183676;23;20017;-73
2022/02/03 11:27:20;;;;;;;4.63;2.13;;;8.60;90.00;;;;;;6183806;23;20001;-72
2022/02/03 11:33:43;;;;;;;3.83;2.00;;;8.70;89.90;;;;;;6184065;23;20005;-72
2022/02/03 11:37:00;;;;;;;3.40;1.90;;;8.70;89.90;;;;;;6183047;23;20009;-72
2022/02/03 11:45:31;;;;;;;6.53;3.65;;;8.60;89.70;;;;;;6184331;23;20089;-73
2022/02/03 12:00:11;;;;;;;4.57;2.33;;;8.70;89.70;;;;;;6184136;23;20051;-72
2022/02/03 12:02:36;;;;;;;5.45;2.53;;;8.70;89.80;;;;;;6183880;23;20009;-72
2022/02/03 12:05:20;;;;;;;4.78;2.90;;;8.70;89.80;;;;;;6182567;23;20009;-72
2022/02/03 12:14:20;;;;;;;4.32;2.28;;;8.80;90.10;;;;;;6184128;23;20045;-72
2022/02/03 12:16:59;;;;;;;4.25;2.47;;;8.80;89.60;;;;;;6184216;23;20088;-72
2022/02/03 12:19:45;;;;;;;4.55;2.58;;;8.80;89.40;;;;;;6157814;23;20083;-71
2022/02/03 12:22:22;;;;;;;4.53;2.40;;;8.90;89.30;;;;;;6182643;23;20299;-72
2022/02/03 12:25:12;;;;;;;4.97;2.55;;;8.90;89.20;;;;;;6181952;23;20015;-72
2022/02/03 12:30:29;;;;;;;5.72;2.92;;;9.00;88.90;;;;;;6184108;23;20056;-73
2022/02/03 12:38:23;;;;;;;5.50;3.00;;;8.80;88.60;;;;;;6183913;23;20021;-72
2022/02/03 12:40:54;;;;;;;6.53;3.50;;;8.80;88.70;;;;;;6178548;23;20336;-73
2022/02/03 12:43:29;;;;;;;5.35;3.28;;;8.90;88.80;;;;;;6184126;23;20013;-72
2022/02/03 12:45:55;;;;;;;5.93;3.20;;;8.80;88.70;;;;;;6182878;23;20433;-72
2022/02/03 12:48:26;;;;;;;5.20;3.05;;;8.80;88.70;;;;;;6184142;23;20017;-72
2022/02/03 12:50:53;;;;;;;5.85;3.42;;;8.80;88.70;;;;;;6184130;23;20016;-72
2022/02/03 12:53:20;;;;;;;4.70;2.75;;;8.70;88.60;;;;;;6182412;23;20005;-73
2022/02/03 12:55:50;;;;;;;6.32;2.65;;;8.70;88.70;;;;;;6184326;23;20008;-71
2022/02/03 12:58:21;;;;;;;6.50;3.38;;;8.70;88.80;;;;;;6184276;23;20005;-72
2022/02/03 13:00:56;;;;;;;6.00;2.97;;;8.70;88.80;;;;;;6184406;23;20081;-73
2022/02/03 13:03:37;;;;;;;4.82;2.95;;;8.50;88.80;;;;;;6183782;23;20085;-72
2022/02/03 13:06:08;;;;;;;5.78;2.92;;;8.60;89.00;;;;;;6181718;23;20025;-72
2022/02/03 13:08:40;;;;;;;6.03;3.10;;;8.50;89.00;;;;;;6179916;23;20005;-72
2022/02/03 13:14:17;;;;;;;5.10;2.60;;;8.60;89.30;;;;;;6183982;23;20025;-72
2022/02/03 13:16:51;;;;;;;5.50;2.88;;;8.70;89.00;;;;;;6184706;23;20005;-73
2022/02/03 13:19:25;;;;;;;5.78;3.00;;;8.80;88.80;;;;;;6182902;23;20016;-73
2022/02/03 13:22:09;;;;;;;4.55;2.58;;;8.70;88.70;;;;;;6184666;23;20436;-73
2022/02/03 13:25:02;;;;;;;5.75;2.42;;;8.70;88.80;;;;;;6184030;23;20008;-74
2022/02/03 13:27:26;;;;;;;4.35;2.60;;;8.70;88.90;;;;;;6183767;23;20036;-74
2022/02/03 13:30:00;;;;;;;;;;;8.60;88.90;;;;;;6185015;23;20428;-74
2022/02/03 13:32:36;;;;;;;5.28;2.67;;;8.60;89.70;;;;;;6182147;23;19908;-75
2022/02/03 13:35:20;;;;;;;5.28;2.80;;;8.50;89.00;;;;;;6184492;23;20009;-74
2022/02/03 13:37:59;;;;;;;5.57;2.92;;;8.60;89.20;;;;;;6183850;23;20329;-74
2022/02/03 13:40:27;;;;;;;3.85;2.40;;;8.50;89.20;;;;;;6179813;23;20088;-74
2022/02/03 13:43:02;;;;;;;3.90;2.30;;;8.50;89.20;;;;;;6184046;23;20460;-74
2022/02/03 13:45:27;;;;;;;4.40;2.53;;;8.50;89.30;;;;;;6181583;23;20383;-72
2022/02/03 13:47:53;;;;;;;4.95;2.33;;;8.50;89.30;;;;;;6183585;23;20032;-72
2022/02/03 13:50:24;;;;;;;4.07;2.50;;;8.40;89.30;;;;;;6183796;23;20330;-74
2022/02/03 13:52:58;;;;;;;4.03;2.27;;;8.40;89.30;;;;;;6157781;23;20001;-71
2022/02/03 14:20:11;;;;;;;3.53;2.10;;;8.40;90.10;;;;;;6183937;23;20009;-73
2022/02/03 14:22:40;;;;;;;3.53;2.17;;;8.30;89.80;;;;;;6183699;23;20016;-72
2022/02/03 14:27:49;;;;;;;2.90;2.00;;;8.10;90.00;;;;;;6183739;23;20031;-71
2022/02/03 14:30:18;;;;;;;3.88;2.30;;;8.10;90.00;;;;;;6183064;23;20120;-71
2022/02/03 14:32:44;;;;;;;4.57;2.60;;;8.10;90.10;;;;;;6184316;23;20013;-71
2022/02/03 14:35:11;;;;;;;4.07;2.05;;;8.00;90.10;;;;;;6184193;23;20020;-70
2022/02/03 14:37:48;;;;;;;3.65;2.40;;;8.00;90.20;;;;;;6184117;23;20101;-71
2022/02/03 14:40:29;;;;;;;3.40;2.13;;;8.00;90.20;;;;;;6184457;23;20005;-71
2022/02/03 14:42:57;;;;;;;;;;;7.90;90.20;;;;;;6184576;23;20076;-71
2022/02/03 14:45:23;;;;;;;4.32;2.50;;;7.90;90.20;;;;;;6183670;23;20323;-71
2022/02/03 14:47:49;;;;;;;4.18;2.45;;;7.90;90.30;;;;;;6184372;23;20088;-71
2022/02/03 14:50:15;;;;;;;3.97;2.40;;;7.90;90.30;;;;;;6182286;23;20009;-71
2022/02/03 14:58:03;;;;;;;4.30;2.50;;;7.90;90.40;;;;;;6183403;23;20016;-71
2022/02/03 15:00:30;;;;;;;5.95;2.60;;;7.70;90.50;;;;;;6156989;23;20060;-71
2022/02/03 15:02:57;;;;;;;4.18;2.45;;;7.70;90.50;;;;;;6183236;23;20004;-70
2022/02/03 15:05:26;;;;;;;2.92;2.05;;;7.70;90.60;;;;;;6183495;23;20016;-72
2022/02/03 15:08:03;;;;;;;3.45;2.22;;;7.70;90.60;;;;;;6183145;23;20017;-72
2022/02/03 15:10:43;;;;;;;5.90;2.33;;;7.70;90.70;;;;;;6176304;23;20029;-72
2022/02/03 15:13:32;;;;;;;5.55;2.95;;;7.70;90.70;;;;;;6183486;23;20009;-71
2022/02/03 15:15:56;;;;;;;3.53;2.30;;;7.60;90.70;;;;;;6183005;23;20023;-70
2022/02/03 15:18:21;;;;;;;3.72;1.95;;;7.60;90.70;;;;;;6183655;23;20096;-72
2022/02/03 15:20:47;;;;;;;3.97;2.45;;;7.60;90.70;;;;;;6179510;23;20434;-72
2022/02/03 15:23:13;;;;;;;4.07;2.55;;;7.70;90.70;;;;;;6183138;23;20436;-72
2022/02/03 15:25:39;;;;;;;4.70;2.17;;;7.60;90.70;;;;;;6183215;23;20044;-72
2022/02/03 15:28:04;;;;;;;3.13;1.90;;;7.70;90.70;;;;;;6183019;23;20345;-72
2022/02/03 15:30:30;;;;;;;4.18;2.03;;;7.70;90.70;;;;;;6183711;23;20455;-72
2022/02/03 15:32:56;;;;;;;5.07;1.88;;;7.70;90.70;;;;;;6183540;23;20012;-73
2022/02/03 15:35:28;;;;;;;3.03;2.00;;;7.70;90.70;;;;;;6183623;23;20009;-72
2022/02/03 15:37:54;;;;;;;2.85;1.90;;;7.70;90.70;;;;;;6183558;23;20092;-72
2022/02/03 15:40:24;;;;;;;3.55;2.17;;;7.70;90.80;;;;;;6183066;23;19997;-72
2022/02/03 15:42:57;;;;;;;2.97;2.05;;;7.70;90.80;;;;;;6183110;23;19997;-72
2022/02/03 15:45:23;;;;;;;4.38;2.20;;;7.60;90.80;;;;;;6182767;23;20040;-72
2022/02/03 15:47:56;;;;;;;4.40;2.05;;;7.60;90.80;;;;;;6182857;23;20005;-72
2022/02/03 16:15:21;;;;;;;5.20;2.40;;;7.60;90.90;;;;;;6182755;23;20800;-72
2022/02/03 16:17:12;;;;;;;3.72;2.40;;;7.60;91.00;;;;;;6181336;23;20030;-73
2022/02/03 16:19:51;;;;;;;5.05;2.75;;;7.60;91.00;;;;;;6184033;23;20007;-72
2022/02/03 16:22:58;;;;;;;5.00;2.65;;;7.60;91.00;;;;;;6184771;23;20001;-73
2022/02/03 16:25:13;;;;;;;4.60;2.50;;;7.60;91.00;;;;;;6184059;23;20380;-72
2022/02/03 16:41:29;;;;;;;4.63;2.65;;;7.60;91.00;;;;;;6184087;23;20377;-72
2022/02/03 16:52:09;;;;;;;5.15;2.60;;;7.60;91.10;;;;;;6184187;23;20013;-72
2022/02/03 16:54:34;;;;;;;5.00;2.33;;;7.50;91.10;;;;;;6181849;23;20006;-74
2022/02/03 16:57:08;;;;;;;4.50;2.42;;;7.50;91.10;;;;;;6183130;23;20349;-75
2022/02/03 16:59:37;;;;;;;4.10;2.20;;;7.50;91.10;;;;;;6182495;23;20120;-74
2022/02/03 17:02:03;;;;;;;4.35;2.50;;;7.50;91.10;;;;;;6183899;23;20013;-74
2022/02/03 17:04:29;;;;;;;4.85;2.45;;;7.60;91.10;;;;;;6183843;23;20370;-73
2022/02/03 17:06:54;;;;;;;5.05;2.83;;;7.50;91.10;;;;;;6157694;23;20016;-73
2022/02/03 17:09:20;;;;;;;5.45;3.03;;;7.50;91.10;;;;;;6182426;23;20029;-73
2022/02/03 17:11:45;;;;;;;5.28;3.00;;;7.50;91.10;;;;;;6183909;23;20015;-73
2022/02/03 17:14:11;;;;;;;5.05;3.03;;;7.50;91.20;;;;;;6184217;23;20008;-73
2022/02/03 17:16:37;;;;;;;5.97;3.13;;;7.50;91.20;;;;;;6180377;23;20025;-73
2022/02/03 17:19:03;;;;;;;6.35;3.47;;;7.50;91.20;;;;;;6182235;23;20012;-72
2022/02/03 17:21:30;;;;;;;4.47;2.60;;;7.50;91.20;;;;;;6184406;23;20468;-72
2022/02/03 17:23:56;;;;;;;5.63;3.33;;;7.50;91.20;;;;;;6184204;23;20001;-73
2022/02/03 17:26:31;;;;;;;5.68;3.28;;;7.60;91.30;;;;;;6184576;23;20055;-72
2022/02/03 17:29:08;;;;;;;5.68;3.58;;;7.50;91.20;;;;;;6180662;23;20008;-72
2022/02/03 17:32:02;;;;;;;5.95;3.42;;;7.50;91.20;;;;;;6183724;23;20008;-72
2022/02/03 17:52:13;;;;;;;6.47;3.88;;;7.50;91.30;;;;;;6183673;23;20005;-73
2022/02/03 18:18:23;;;;;;;6.72;3.63;;;7.50;91.30;;;;;;6181322;23;20025;-73
2022/02/03 18:26:48;;;;;;;7.10;3.80;;;7.50;91.30;;;;;;6183395;23;20009;-72
2022/02/03 18:31:23;;;;;;;8.18;3.85;;;7.50;91.30;;;;;;6183454;23;20017;-72
2022/02/03 18:34:12;;;;;;;6.63;3.95;;;7.50;91.30;;;;;;6157241;23;20011;-72
2022/02/03 18:36:54;;;;;;;5.60;3.22;;;7.50;91.30;;;;;;6183422;23;20338;-73
2022/02/03 18:50:18;;;;;;;8.15;5.15;;;7.50;91.30;;;;;;6183490;23;20020;-73
2022/02/03 18:53:00;;;;;;;9.48;4.72;;;7.50;91.30;;;;;;6184257;23;20790;-73
2022/02/03 18:55:34;;;;;;;8.07;5.10;;;7.50;91.30;;;;;;6183807;23;20072;-73
2022/02/03 18:58:13;;;;;;;8.93;5.07;;;7.50;91.30;;;;;;6183803;23;20040;-73
2022/02/03 19:01:13;;;;;;;8.85;4.88;;;7.60;91.40;;;;;;6183530;23;19994;-74
2022/02/03 19:25:14;;;;;;;7.80;4.65;;;7.50;91.40;;;;;;6183282;23;20104;-73
2022/02/03 19:27:52;;;;;;;7.03;4.65;;;7.50;91.40;;;;;;6182949;23;20005;-72
2022/02/03 19:57:46;;;;;;;8.10;5.00;;;7.40;91.40;;;;;;6182964;23;20013;-72
2022/02/03 20:03:05;;;;;;;8.95;5.57;;;7.40;91.40;;;;;;6178399;23;20084;-74
2022/02/03 20:05:31;;;;;;;8.13;5.00;;;7.40;91.40;;;;;;6182699;23;20020;-73
2022/02/03 20:08:03;;;;;;;8.13;4.97;;;7.40;91.40;;;;;;6184272;23;20001;-73
2022/02/03 20:10:35;;;;;;;7.68;4.65;;;7.40;91.50;;;;;;6184919;23;20008;-73
2022/02/03 20:13:01;;;;;;;7.93;4.63;;;7.40;91.50;;;;;;6183632;23;20008;-73
2022/02/03 20:15:27;;;;;;;7.35;4.55;;;7.40;91.50;;;;;;6184115;23;20001;-73
2022/02/03 20:17:54;;;;;;;8.60;4.25;;;7.40;91.50;;;;;;6184030;23;20064;-73
2022/02/03 20:20:20;;;;;;;6.55;3.90;;;7.40;91.50;;;;;;6182314;23;20456;-73
2022/02/03 20:22:46;;;;;;;6.88;4.00;;;7.50;91.60;;;;;;6180351;23;20002;-73
2022/02/03 20:25:12;;;;;;;7.00;4.18;;;7.50;91.60;;;;;;6184555;23;20004;-72
2022/02/03 20:27:38;;;;;;;7.82;4.47;;;7.40;91.60;;;;;;6181488;23;20048;-73
2022/02/03 20:30:06;;;;;;;7.93;4.45;;;7.40;91.60;;;;;;6180554;23;20354;-73
2022/02/03 20:32:32;;;;;;;7.25;4.30;;;7.40;91.60;;;;;;6182442;23;20016;-73
2022/02/03 20:34:59;;;;;;;7.88;4.18;;;7.50;91.60;;;;;;6184599;23;20009;-73
2022/02/03 20:37:26;;;;;;;6.78;4.18;;;7.40;91.60;;;;;;6185008;23;20092;-73
2022/02/03 20:39:52;;;;;;;7.55;4.30;;;7.40;91.60;;;;;;6184537;23;20024;-73
2022/02/03 20:42:18;;;;;;;8.43;4.97;;;7.40;91.60;;;;;;6184334;23;19997;-73
2022/02/03 20:44:45;;;;;;;6.88;3.95;;;7.40;91.60;;;;;;6182940;23;20004;-73
2022/02/03 20:47:12;;;;;;;7.38;4.55;;;7.40;91.90;;;;;;6182562;23;20008;-73
2022/02/03 20:49:38;;;;;;;7.60;4.70;;;7.40;91.60;;;;;;6183886;23;20428;-73
2022/02/03 20:52:04;;;;;;;8.15;4.65;;;7.40;91.90;;;;;;6184022;23;20001;-73
2022/02/03 20:54:30;;;;;;;7.40;4.20;;;7.40;91.70;;;;;;6183029;23;20047;-73
2022/02/03 20:56:57;;;;;;;7.32;4.25;;;7.40;91.70;;;;;;6182354;23;20013;-73
2022/02/03 20:59:29;;;;;;;8.05;4.20;;;7.50;91.70;;;;;;6183841;23;20021;-72
2022/02/03 21:01:57;;;;;;;7.68;4.40;;;7.50;91.70;;;;;;6184014;23;19997;-73
2022/02/03 21:04:33;;;;;;;7.20;3.80;;;7.50;91.70;;;;;;6183349;23;19997;-73
2022/02/03 21:06:59;;;;;;;7.82;4.35;;;7.50;91.70;;;;;;6183876;23;20302;-73
2022/02/03 21:09:25;;;;;;;7.55;4.18;;;7.50;91.70;;;;;;6184543;23;19997;-73
2022/02/03 21:11:51;;;;;;;7.43;4.35;;;7.50;91.70;;;;;;6182423;23;20004;-72
2022/02/03 21:14:17;;;;;;;8.13;4.55;;;7.50;91.70;;;;;;6184066;23;20001;-72
2022/02/03 21:16:50;;;;;;;8.98;5.35;;;7.50;91.70;;;;;;6184183;23;20723;-72
2022/02/03 21:19:15;;;;;;;10.68;5.45;;;7.50;91.70;;;;;;6184483;23;20016;-72
2022/02/03 21:21:41;;;;;;;10.27;6.00;;;7.60;91.70;;;;;;6157967;23;20009;-72
2022/02/03 21:24:09;;;;;;;9.77;6.03;;;7.50;91.60;;;;;;6158168;23;20017;-72
2022/02/03 21:26:39;;;;;;;8.35;5.25;;;7.50;91.60;;;;;;6183960;23;20449;-72
2022/02/03 21:29:05;;;;;;;10.25;6.57;;;7.50;91.60;;;;;;6179687;23;20017;-72
2022/02/03 21:31:31;;;;;;;10.85;6.45;;;7.50;91.60;;;;;;6183722;23;20459;-73
2022/02/03 21:33:57;;;;;;;10.63;6.38;;;7.50;91.60;;;;;;6182276;23;20005;-73
2022/02/03 21:36:27;;;;;;;11.15;6.07;;;7.50;91.60;;;;;;6184474;23;20043;-73
2022/02/03 21:38:52;;;;;;;9.68;5.97;;;7.50;91.60;;;;;;6183774;23;20009;-73
2022/02/03 21:41:18;;;;;;;8.00;5.03;;;7.50;91.60;;;;;;6182419;23;20012;-73
2022/02/03 21:43:45;;;;;;;8.57;5.10;;;7.50;91.60;;;;;;6183392;23;20009;-72
2022/02/03 21:46:11;;;;;;;8.82;5.03;;;7.60;91.70;;;;;;6181880;23;20005;-73
2022/02/03 21:48:40;;;;;;;8.15;4.68;;;7.60;91.70;;;;;;6183824;23;20329;-73
2022/02/03 21:51:07;;;;;;;8.85;5.00;;;7.60;91.70;;;;;;6184051;23;20056;-73
2022/02/03 21:53:34;;;;;;;7.65;4.55;;;7.60;91.70;;;;;;6183681;23;20009;-73
2022/02/03 21:56:00;;;;;;;7.70;4.53;;;7.60;91.70;;;;;;6181573;23;20077;-72
2022/02/03 21:58:26;;;;;;;7.72;4.80;;;7.60;91.70;;;;;;6182420;23;20019;-73